Time;durP1;ratioP1;P1;durP2;ratioP2;P2;SDS_P1;SDS_P2;PMS_P1;PMS_P2;Temp;Humidity;BMP_temperature;BMP_pressure;BME280_temperature;BME280_humidity;BME280_pressure;Samples;Min_cycle;Max_cycle;Signal;HPM_P1;HPM_P2
2021/10/15 00:01:24;;;;;;;11.73;4.70;;;13.00;99.90;;;;;;5025835;28;20579;-39
2021/10/15 00:03:50;;;;;;;4.57;3.43;;;12.80;99.90;;;;;;5024102;28;20195;-38
2021/10/15 00:06:16;;;;;;;4.43;3.97;;;12.80;99.90;;;;;;5025622;28;20225;-38
2021/10/15 00:08:41;;;;;;;6.47;4.20;;;12.80;99.90;;;;;;5025289;28;20789;-38
2021/10/15 00:11:07;;;;;;;5.20;4.10;;;12.80;99.90;;;;;;5026077;28;20186;-38
2021/10/15 00:13:33;;;;;;;4.17;3.70;;;12.80;99.90;;;;;;5019023;28;20182;-38
2021/10/15 00:15:59;;;;;;;3.97;2.87;;;12.90;99.90;;;;;;5021127;28;20193;-39
2021/10/15 00:18:24;;;;;;;4.87;3.20;;;12.90;99.90;;;;;;5025648;28;20267;-39
2021/10/15 00:20:50;;;;;;;4.13;3.17;;;12.90;99.90;;;;;;5035748;28;20193;-39
2021/10/15 00:23:16;;;;;;;7.80;3.67;;;12.80;99.90;;;;;;5042002;28;20200;-39
2021/10/15 00:25:41;;;;;;;6.03;3.27;;;12.80;99.90;;;;;;5045535;28;20581;-40
2021/10/15 00:28:07;;;;;;;3.90;3.00;;;12.80;99.90;;;;;;5037349;28;20254;-38
2021/10/15 00:30:33;;;;;;;3.67;3.17;;;12.70;99.90;;;;;;5020189;28;20213;-38
2021/10/15 00:33:00;;;;;;;5.27;3.30;;;12.80;99.90;;;;;;5024803;28;20199;-39
2021/10/15 00:35:25;;;;;;;4.90;3.53;;;12.80;99.90;;;;;;5023717;28;20194;-39
2021/10/15 00:37:51;;;;;;;4.30;3.30;;;12.90;99.90;;;;;;5025619;28;20437;-39
2021/10/15 00:40:17;;;;;;;7.53;4.10;;;12.90;99.90;;;;;;5023726;28;20684;-39
2021/10/15 00:42:43;;;;;;;6.33;3.40;;;12.80;99.90;;;;;;5024934;28;20202;-38
2021/10/15 00:45:09;;;;;;;5.17;3.47;;;13.00;99.90;;;;;;5015114;28;20437;-43
2021/10/15 00:47:35;;;;;;;6.10;3.27;;;12.70;99.90;;;;;;5025071;28;20468;-39
2021/10/15 00:50:01;;;;;;;5.00;3.63;;;12.70;99.90;;;;;;5024885;28;20906;-38
2021/10/15 00:52:28;;;;;;;7.67;3.30;;;12.70;99.90;;;;;;5025066;28;20240;-39
2021/10/15 00:54:54;;;;;;;4.17;2.93;;;12.60;99.90;;;;;;5024392;28;20421;-40
2021/10/15 00:57:20;;;;;;;4.50;3.87;;;12.60;99.90;;;;;;5025202;28;20448;-38
2021/10/15 00:59:46;;;;;;;4.97;3.40;;;12.50;99.90;;;;;;5015895;28;20548;-38
2021/10/15 01:02:12;;;;;;;6.63;3.13;;;12.50;99.90;;;;;;5024915;28;20507;-39
2021/10/15 01:04:38;;;;;;;6.60;3.30;;;12.50;99.90;;;;;;5024312;28;20436;-39
2021/10/15 01:07:04;;;;;;;4.70;3.10;;;12.60;99.90;;;;;;5025135;28;20665;-38
2021/10/15 01:09:31;;;;;;;6.70;2.87;;;12.50;99.90;;;;;;5025237;28;20214;-38
2021/10/15 01:11:59;;;;;;;7.97;3.47;;;12.60;99.90;;;;;;5024995;28;20451;-39
2021/10/15 01:14:26;;;;;;;5.90;3.53;;;12.70;99.90;;;;;;5015819;28;20446;-39
2021/10/15 01:16:51;;;;;;;4.00;2.60;;;12.70;99.90;;;;;;5028608;28;20474;-39
2021/10/15 01:19:17;;;;;;;3.97;3.57;;;12.60;99.90;;;;;;5028438;28;20433;-39
2021/10/15 01:21:43;;;;;;;3.47;3.00;;;12.70;99.90;;;;;;5032073;28;20189;-39
2021/10/15 01:24:08;;;;;;;4.37;3.20;;;12.70;99.90;;;;;;5039084;28;20186;-38
2021/10/15 01:26:34;;;;;;;9.30;4.00;;;12.60;99.90;;;;;;5048322;28;20518;-38
2021/10/15 01:29:00;;;;;;;4.43;3.20;;;12.60;99.90;;;;;;5033977;28;20236;-38
2021/10/15 01:31:27;;;;;;;6.10;3.50;;;12.50;99.90;;;;;;5026197;28;20610;-38
2021/10/15 01:33:58;;;;;;;8.30;3.60;;;12.50;99.90;;;;;;5027474;28;20596;-38
2021/10/15 01:36:25;;;;;;;4.93;4.00;;;12.50;99.90;;;;;;5028380;28;20444;-38
2021/10/15 01:38:51;;;;;;;3.83;3.43;;;12.50;99.90;;;;;;5028502;28;20540;-39
2021/10/15 01:41:16;;;;;;;5.50;3.67;;;12.60;99.90;;;;;;5026848;28;20818;-38
2021/10/15 01:43:42;;;;;;;4.67;3.20;;;12.50;99.90;;;;;;5023966;28;20448;-40
2021/10/15 01:46:08;;;;;;;5.53;3.40;;;12.50;99.90;;;;;;5019804;28;20198;-39
2021/10/15 01:48:34;;;;;;;3.73;3.10;;;12.40;99.90;;;;;;5027494;28;20393;-39
2021/10/15 01:50:59;;;;;;;5.30;4.10;;;12.40;99.90;;;;;;5028264;28;20222;-39
2021/10/15 01:53:25;;;;;;;5.27;4.27;;;12.30;99.90;;;;;;5027477;28;20198;-38
2021/10/15 01:55:51;;;;;;;4.83;3.70;;;12.30;99.90;;;;;;5028235;28;20217;-39
2021/10/15 01:58:20;;;;;;;3.50;3.20;;;12.30;99.90;;;;;;5028233;28;20202;-39
2021/10/15 02:00:47;;;;;;;4.80;3.10;;;12.30;99.90;;;;;;5015754;28;20728;-38
2021/10/15 02:03:13;;;;;;;5.63;4.13;;;12.30;99.90;;;;;;5026960;28;20670;-38
2021/10/15 02:05:39;;;;;;;3.43;3.13;;;12.30;99.90;;;;;;5027988;28;20425;-38
2021/10/15 02:08:05;;;;;;;5.30;3.47;;;12.20;99.90;;;;;;5028105;28;20779;-39
2021/10/15 02:10:31;;;;;;;6.30;4.20;;;12.20;99.90;;;;;;5027377;28;20530;-38
2021/10/15 02:12:57;;;;;;;5.80;3.60;;;12.20;99.90;;;;;;5027015;28;21107;-39
2021/10/15 02:15:23;;;;;;;4.30;3.40;;;12.20;99.90;;;;;;5019038;28;20494;-38
2021/10/15 02:17:49;;;;;;;5.80;3.57;;;12.20;99.90;;;;;;5027280;28;20210;-38
2021/10/15 02:20:17;;;;;;;5.43;3.53;;;12.30;99.90;;;;;;5027043;28;20433;-38
2021/10/15 02:22:45;;;;;;;5.43;3.50;;;12.10;99.90;;;;;;5033804;28;20828;-38
2021/10/15 02:25:13;;;;;;;5.40;4.00;;;12.20;99.90;;;;;;5047036;28;20420;-38
2021/10/15 02:27:39;;;;;;;9.57;3.77;;;12.20;99.90;;;;;;5046661;28;20430;-39
2021/10/15 02:30:07;;;;;;;6.10;3.63;;;12.10;99.90;;;;;;5024136;28;20976;-39
2021/10/15 02:32:33;;;;;;;4.67;3.80;;;11.90;99.90;;;;;;5026499;28;20959;-39
2021/10/15 02:34:59;;;;;;;8.40;4.17;;;12.00;99.90;;;;;;5025294;28;20971;-38
2021/10/15 02:37:24;;;;;;;4.40;3.67;;;12.10;99.90;;;;;;5027267;28;20440;-39
2021/10/15 02:39:50;;;;;;;7.70;4.03;;;12.00;99.90;;;;;;5025445;28;20264;-39
2021/10/15 02:42:16;;;;;;;6.30;4.40;;;12.00;99.90;;;;;;5027091;28;20198;-38
2021/10/15 02:44:43;;;;;;;6.30;4.10;;;12.00;99.90;;;;;;5018260;28;20203;-39
2021/10/15 02:47:09;;;;;;;6.10;4.10;;;12.00;99.90;;;;;;5022837;28;20429;-38
2021/10/15 02:49:34;;;;;;;6.73;4.37;;;11.90;99.90;;;;;;5027069;28;20904;-39
2021/10/15 02:52:00;;;;;;;3.90;3.50;;;12.00;99.90;;;;;;5026943;28;20194;-39
2021/10/15 02:54:26;;;;;;;9.57;4.30;;;11.90;99.90;;;;;;5026250;28;20218;-39
2021/10/15 02:56:52;;;;;;;9.90;4.77;;;12.00;99.90;;;;;;5026484;28;20448;-40
2021/10/15 02:59:18;;;;;;;11.90;4.70;;;12.20;99.90;;;;;;5022254;28;20442;-39
2021/10/15 03:01:43;;;;;;;9.57;6.77;;;11.90;99.90;;;;;;5022257;28;20264;-38
2021/10/15 03:04:09;;;;;;;11.27;4.57;;;12.00;99.90;;;;;;5024598;28;20190;-38
2021/10/15 03:06:35;;;;;;;7.50;5.10;;;12.00;99.90;;;;;;5026734;28;20253;-38
2021/10/15 03:09:01;;;;;;;9.70;5.90;;;11.90;99.90;;;;;;5026392;28;20221;-38
2021/10/15 03:11:27;;;;;;;8.33;6.10;;;12.00;99.90;;;;;;5026463;28;20915;-38
2021/10/15 03:13:52;;;;;;;10.43;5.93;;;11.90;99.90;;;;;;5024299;28;20213;-39
2021/10/15 03:16:18;;;;;;;7.70;5.90;;;11.90;99.90;;;;;;5018780;28;20433;-38
2021/10/15 03:18:44;;;;;;;11.27;5.93;;;12.00;99.90;;;;;;5026033;28;20186;-38
2021/10/15 03:21:09;;;;;;;6.27;5.20;;;12.00;99.90;;;;;;5026308;28;20190;-40
2021/10/15 03:23:35;;;;;;;9.17;5.60;;;12.00;99.90;;;;;;5042975;28;20390;-38
2021/10/15 03:26:01;;;;;;;8.90;6.30;;;12.00;99.90;;;;;;5046553;28;20258;-39
2021/10/15 03:28:27;;;;;;;8.70;5.47;;;12.00;99.90;;;;;;5045803;28;20197;-40
2021/10/15 03:30:53;;;;;;;10.50;5.70;;;12.00;99.90;;;;;;5022562;28;20477;-38
2021/10/15 03:33:19;;;;;;;8.37;5.43;;;11.90;99.90;;;;;;5025521;28;20221;-39
2021/10/15 03:35:44;;;;;;;7.80;5.43;;;11.90;99.90;;;;;;5026185;28;20208;-38
2021/10/15 03:38:10;;;;;;;7.30;5.30;;;12.10;99.90;;;;;;5025806;28;20190;-39
2021/10/15 03:40:36;;;;;;;7.40;5.37;;;11.90;99.90;;;;;;5024560;28;20245;-38
2021/10/15 03:43:02;;;;;;;7.43;6.43;;;11.90;99.90;;;;;;5024801;28;20226;-39
2021/10/15 03:45:27;;;;;;;7.67;5.23;;;11.90;99.90;;;;;;5015803;28;20874;-38
2021/10/15 03:47:53;;;;;;;10.83;6.27;;;12.10;99.90;;;;;;5025380;28;20197;-38
2021/10/15 03:50:18;;;;;;;8.53;5.97;;;11.90;99.90;;;;;;5025756;28;20249;-38
2021/10/15 03:52:44;;;;;;;8.47;5.70;;;11.80;99.90;;;;;;5025305;28;20389;-39
2021/10/15 03:55:12;;;;;;;9.97;5.33;;;11.80;99.90;;;;;;5025617;28;20197;-42
2021/10/15 03:57:38;;;;;;;9.63;5.67;;;11.80;99.90;;;;;;5025374;28;20225;-40
2021/10/15 04:00:06;;;;;;;10.60;5.80;;;11.80;99.90;;;;;;5019131;28;20801;-39
2021/10/15 04:02:32;;;;;;;7.70;5.70;;;11.90;99.90;;;;;;5018309;28;20425;-38
2021/10/15 04:04:58;;;;;;;6.50;5.20;;;12.00;99.90;;;;;;5025353;28;20539;-38
2021/10/15 04:07:23;;;;;;;7.03;6.13;;;11.80;99.90;;;;;;5025575;28;20244;-39
2021/10/15 04:09:49;;;;;;;10.90;6.13;;;12.00;99.90;;;;;;5025455;28;20210;-39
2021/10/15 04:12:15;;;;;;;11.23;5.63;;;12.00;99.90;;;;;;5025623;28;20190;-38
2021/10/15 04:14:40;;;;;;;10.57;5.83;;;11.90;99.90;;;;;;5021506;28;20558;-39
2021/10/15 04:17:06;;;;;;;11.60;5.67;;;11.90;99.90;;;;;;5016290;28;20433;-38
2021/10/15 04:19:32;;;;;;;9.73;6.80;;;11.80;99.90;;;;;;5025257;28;20614;-38
2021/10/15 04:21:57;;;;;;;7.00;5.80;;;11.90;99.90;;;;;;5044570;28;20724;-39
2021/10/15 04:24:23;;;;;;;11.57;6.47;;;11.80;99.90;;;;;;5033095;28;20194;-39
2021/10/15 04:26:48;;;;;;;7.83;6.03;;;11.80;99.90;;;;;;5025189;28;20194;-39
2021/10/15 04:29:14;;;;;;;11.90;6.60;;;11.90;99.90;;;;;;5025475;28;20222;-38
2021/10/15 04:31:40;;;;;;;8.47;6.27;;;11.90;99.90;;;;;;5016372;28;20213;-38
2021/10/15 04:34:05;;;;;;;7.70;5.77;;;11.90;99.90;;;;;;5024859;28;20190;-38
2021/10/15 04:36:32;;;;;;;9.20;6.30;;;12.00;99.90;;;;;;5025549;28;20699;-38
2021/10/15 04:38:57;;;;;;;9.87;6.30;;;12.10;99.90;;;;;;5025510;28;20596;-38
2021/10/15 04:41:23;;;;;;;7.57;5.10;;;12.00;99.90;;;;;;5023323;28;20461;-39
2021/10/15 04:43:49;;;;;;;9.17;5.73;;;11.90;99.90;;;;;;5024904;28;20645;-39
2021/10/15 04:46:15;;;;;;;9.20;5.70;;;11.80;99.90;;;;;;5014282;28;20183;-39
2021/10/15 04:48:41;;;;;;;13.33;6.43;;;11.90;99.90;;;;;;5024009;28;20784;-38
2021/10/15 04:51:07;;;;;;;7.90;6.43;;;11.70;99.90;;;;;;5028240;28;20190;-39
2021/10/15 04:53:32;;;;;;;8.00;6.10;;;11.80;99.90;;;;;;5025924;28;20193;-39
2021/10/15 04:55:58;;;;;;;8.13;5.53;;;12.00;99.90;;;;;;5025869;28;20944;-39
2021/10/15 04:58:23;;;;;;;7.43;5.70;;;11.90;99.90;;;;;;5029217;28;20669;-39
2021/10/15 05:00:50;;;;;;;8.30;5.90;;;11.90;99.90;;;;;;5021249;28;20310;-39
2021/10/15 05:03:16;;;;;;;7.23;5.53;;;12.00;99.90;;;;;;5025308;28;20682;-39
2021/10/15 05:05:42;;;;;;;9.70;5.20;;;12.00;99.90;;;;;;5027733;28;20267;-38
2021/10/15 05:08:14;;;;;;;8.77;6.00;;;11.90;99.90;;;;;;5028943;28;20194;-38
2021/10/15 05:10:41;;;;;;;8.77;6.87;;;11.70;99.90;;;;;;5028715;28;20551;-38
2021/10/15 05:13:07;;;;;;;7.33;5.93;;;11.80;99.90;;;;;;5027146;28;20428;-40
2021/10/15 05:15:33;;;;;;;7.10;5.70;;;11.90;99.90;;;;;;5023526;28;20900;-38
2021/10/15 05:17:59;;;;;;;7.27;5.73;;;11.90;99.90;;;;;;5023517;28;20209;-38
2021/10/15 05:20:24;;;;;;;7.67;6.07;;;11.90;99.90;;;;;;5035062;28;20200;-39
2021/10/15 05:22:50;;;;;;;7.40;6.00;;;11.90;99.90;;;;;;5046553;28;20198;-38
2021/10/15 05:25:16;;;;;;;7.07;5.43;;;11.80;99.90;;;;;;5039139;28;20263;-38
2021/10/15 05:27:42;;;;;;;7.43;5.90;;;11.80;99.90;;;;;;5048470;28;20182;-39
2021/10/15 05:30:09;;;;;;;7.30;5.80;;;11.80;99.90;;;;;;5043420;28;20773;-38
2021/10/15 05:32:36;;;;;;;8.23;6.03;;;11.80;99.90;;;;;;5020703;28;20421;-38
2021/10/15 05:35:03;;;;;;;7.60;6.00;;;11.80;99.90;;;;;;5027874;28;20421;-38
2021/10/15 05:37:29;;;;;;;7.80;6.00;;;11.80;99.90;;;;;;5028411;28;20429;-38
2021/10/15 05:39:55;;;;;;;8.27;5.67;;;11.80;99.90;;;;;;5027416;28;20475;-38
2021/10/15 05:42:21;;;;;;;11.13;6.33;;;11.90;99.90;;;;;;5041627;28;20443;-38
2021/10/15 05:44:47;;;;;;;6.23;5.33;;;11.70;99.90;;;;;;5047399;28;20424;-38
2021/10/15 05:47:14;;;;;;;5.97;4.83;;;12.00;99.90;;;;;;5022551;28;20213;-38
2021/10/15 05:49:40;;;;;;;8.00;6.00;;;11.80;99.90;;;;;;5027917;28;20547;-38
2021/10/15 05:52:10;;;;;;;10.13;6.47;;;12.10;99.90;;;;;;5027899;28;20515;-39
2021/10/15 05:59:52;;;;;;;7.60;6.27;;;11.80;99.90;;;;;;5028038;28;20993;-39
2021/10/15 06:02:18;;;;;;;11.27;6.33;;;11.90;99.90;;;;;;5015010;28;20468;-39
2021/10/15 06:15:32;;;;;;;9.80;6.07;;;11.50;99.90;;;;;;5025108;28;20416;-38
2021/10/15 06:17:58;;;;;;;7.90;6.10;;;11.60;99.90;;;;;;5023070;28;20697;-38
2021/10/15 06:20:24;;;;;;;8.40;6.40;;;11.70;99.90;;;;;;5025063;28;20884;-38
2021/10/15 06:22:50;;;;;;;9.67;6.13;;;11.60;99.90;;;;;;5027064;28;20191;-38
2021/10/15 06:25:15;;;;;;;8.50;5.30;;;11.60;99.90;;;;;;5027940;28;20437;-38
2021/10/15 06:27:41;;;;;;;10.13;6.10;;;11.60;99.90;;;;;;5027235;28;20528;-38
2021/10/15 06:30:07;;;;;;;8.97;6.50;;;11.80;99.90;;;;;;5028134;28;20227;-38
2021/10/15 06:32:33;;;;;;;10.60;6.60;;;11.80;99.90;;;;;;5014438;28;20285;-38
2021/10/15 06:34:58;;;;;;;9.20;5.57;;;11.80;99.90;;;;;;5026600;28;20668;-38
2021/10/15 06:37:25;;;;;;;8.33;6.20;;;11.70;99.90;;;;;;5026950;28;20174;-38
2021/10/15 06:39:52;;;;;;;10.27;6.23;;;11.50;99.90;;;;;;5046360;28;20260;-38
2021/10/15 06:42:18;;;;;;;7.40;6.10;;;11.60;99.90;;;;;;5046555;28;20440;-39
2021/10/15 06:44:44;;;;;;;9.43;6.60;;;11.70;99.90;;;;;;5046546;28;20424;-38
2021/10/15 06:47:10;;;;;;;5.87;5.00;;;11.70;99.90;;;;;;5023625;28;20457;-38
2021/10/15 06:49:36;;;;;;;9.23;6.73;;;11.60;99.90;;;;;;5026990;28;20221;-39
2021/10/15 06:52:02;;;;;;;6.83;5.40;;;11.60;99.90;;;;;;5026893;28;20429;-38
2021/10/15 06:54:28;;;;;;;9.50;6.03;;;11.90;99.90;;;;;;5025409;28;20190;-39
2021/10/15 06:56:53;;;;;;;9.20;5.47;;;11.70;99.90;;;;;;5026829;28;20467;-39
2021/10/15 06:59:19;;;;;;;8.40;5.97;;;11.70;99.90;;;;;;5026892;28;20221;-41
2021/10/15 07:01:45;;;;;;;9.50;6.77;;;11.70;99.90;;;;;;5021237;28;20194;-38
2021/10/15 07:04:11;;;;;;;11.17;6.30;;;11.70;99.90;;;;;;5022199;28;20197;-38
2021/10/15 07:06:37;;;;;;;7.37;5.83;;;11.70;99.90;;;;;;5027459;28;20429;-38
2021/10/15 07:09:03;;;;;;;11.20;5.73;;;11.70;99.90;;;;;;5026572;28;20191;-38
2021/10/15 07:11:34;;;;;;;10.70;6.30;;;11.70;99.90;;;;;;5026368;28;20190;-39
2021/10/15 07:14:00;;;;;;;7.93;5.77;;;11.90;99.90;;;;;;5025083;28;20429;-38
2021/10/15 07:16:25;;;;;;;7.57;6.20;;;11.80;99.90;;;;;;5020280;28;20529;-38
2021/10/15 07:18:51;;;;;;;8.20;5.93;;;11.90;99.90;;;;;;5026318;28;20517;-39
2021/10/15 07:21:16;;;;;;;10.03;6.70;;;11.90;99.90;;;;;;5025571;28;20186;-38
2021/10/15 07:23:43;;;;;;;6.63;5.93;;;12.00;99.90;;;;;;5025958;28;20654;-38
2021/10/15 07:26:10;;;;;;;12.33;6.27;;;11.90;99.90;;;;;;5026255;28;20244;-38
2021/10/15 07:28:36;;;;;;;9.90;6.60;;;12.00;99.90;;;;;;5028039;28;20734;-38
2021/10/15 07:31:02;;;;;;;9.60;5.33;;;11.90;99.90;;;;;;5024525;28;20480;-39
2021/10/15 07:33:27;;;;;;;7.97;6.07;;;12.00;99.90;;;;;;5017246;28;20425;-38
2021/10/15 07:35:53;;;;;;;7.37;6.10;;;12.00;99.90;;;;;;5025745;28;20190;-38
2021/10/15 07:38:19;;;;;;;8.57;5.80;;;12.10;99.90;;;;;;5025961;28;20289;-38
2021/10/15 07:40:44;;;;;;;8.00;6.00;;;12.10;99.90;;;;;;5024513;28;20210;-40
2021/10/15 07:43:10;;;;;;;9.77;6.63;;;12.10;99.90;;;;;;5025587;28;20194;-38
2021/10/15 07:45:36;;;;;;;10.67;6.53;;;12.10;99.90;;;;;;5026025;28;20305;-38
2021/10/15 07:48:02;;;;;;;8.70;6.00;;;12.10;99.90;;;;;;5017564;28;20228;-38
2021/10/15 07:50:29;;;;;;;8.67;5.50;;;12.10;99.90;;;;;;5025788;28;20210;-38
2021/10/15 07:52:54;;;;;;;7.10;6.00;;;12.20;99.90;;;;;;5025471;28;20189;-39
2021/10/15 07:55:20;;;;;;;10.57;7.03;;;12.20;99.90;;;;;;5025660;28;20848;-39
2021/10/15 07:57:46;;;;;;;11.63;6.93;;;12.20;99.90;;;;;;5024780;28;20298;-38
2021/10/15 08:00:12;;;;;;;8.47;6.27;;;12.30;99.90;;;;;;5026101;28;20198;-39
2021/10/15 08:02:38;;;;;;;10.30;7.50;;;12.20;99.90;;;;;;5018873;28;20187;-39
2021/10/15 08:05:05;;;;;;;9.60;6.43;;;12.10;99.90;;;;;;5025786;28;20455;-38
2021/10/15 08:07:31;;;;;;;11.07;7.40;;;12.30;99.90;;;;;;5025742;28;20445;-38
2021/10/15 08:09:57;;;;;;;7.67;6.20;;;12.20;99.90;;;;;;5025416;28;20484;-39
2021/10/15 08:12:22;;;;;;;11.17;6.27;;;12.30;99.90;;;;;;5025908;28;20701;-38
2021/10/15 08:14:48;;;;;;;7.77;6.47;;;12.30;99.90;;;;;;5025293;28;20278;-38
2021/10/15 08:17:14;;;;;;;7.93;6.20;;;12.30;99.90;;;;;;5017272;28;20207;-38
2021/10/15 08:19:41;;;;;;;8.77;6.67;;;12.40;99.90;;;;;;5020121;28;20194;-39
2021/10/15 08:22:07;;;;;;;9.63;6.70;;;12.40;99.90;;;;;;5025280;28;20198;-38
2021/10/15 08:24:34;;;;;;;10.33;7.20;;;12.40;99.90;;;;;;5024727;28;20855;-39
2021/10/15 08:27:00;;;;;;;8.50;6.70;;;12.40;99.90;;;;;;5025738;28;20456;-39
2021/10/15 08:29:25;;;;;;;7.27;6.57;;;12.40;99.90;;;;;;5024384;28;20465;-39
2021/10/15 08:31:52;;;;;;;13.67;6.90;;;12.60;99.90;;;;;;5020454;28;20440;-40
2021/10/15 08:34:18;;;;;;;8.70;6.80;;;12.50;99.90;;;;;;5019574;28;20197;-39
2021/10/15 08:36:47;;;;;;;9.43;6.53;;;12.40;99.90;;;;;;5025339;28;20463;-38
2021/10/15 08:39:17;;;;;;;10.97;7.17;;;12.40;99.90;;;;;;5025764;28;20441;-39
2021/10/15 08:41:43;;;;;;;8.07;6.20;;;12.50;99.90;;;;;;5023733;28;20487;-39
2021/10/15 08:44:09;;;;;;;12.90;6.80;;;12.40;99.90;;;;;;5025125;28;20457;-39
2021/10/15 08:46:36;;;;;;;11.73;7.30;;;12.70;99.90;;;;;;5023630;28;20447;-39
2021/10/15 08:49:02;;;;;;;8.70;6.90;;;12.50;99.90;;;;;;5014265;28;20186;-38
2021/10/15 08:51:28;;;;;;;10.33;6.70;;;12.60;99.90;;;;;;5025495;28;20895;-38
2021/10/15 08:53:58;;;;;;;11.07;7.70;;;12.50;99.90;;;;;;5024846;28;20911;-38
2021/10/15 08:56:30;;;;;;;11.53;7.33;;;12.50;99.90;;;;;;5025618;28;20449;-38
2021/10/15 08:59:05;;;;;;;11.80;7.90;;;12.50;99.90;;;;;;5025268;28;20480;-39
2021/10/15 09:01:45;;;;;;;10.03;7.80;;;12.50;99.90;;;;;;5024518;28;20429;-38
2021/10/15 09:04:16;;;;;;;8.57;7.47;;;12.50;99.90;;;;;;5015198;28;21047;-38
2021/10/15 09:06:42;;;;;;;9.87;7.50;;;12.50;99.90;;;;;;5019787;28;20435;-38
2021/10/15 09:09:08;;;;;;;11.30;8.53;;;12.40;99.90;;;;;;5025102;28;20791;-38
2021/10/15 09:11:45;;;;;;;13.23;9.03;;;12.40;99.90;;;;;;5025538;28;20437;-39
2021/10/15 09:14:15;;;;;;;13.27;8.93;;;12.40;99.90;;;;;;5023425;28;20416;-39
2021/10/15 09:16:59;;;;;;;10.20;9.20;;;12.40;99.90;;;;;;5023891;28;20468;-39
2021/10/15 09:19:32;;;;;;;10.43;8.63;;;12.50;99.90;;;;;;5021443;28;21058;-38
2021/10/15 09:22:19;;;;;;;13.03;10.03;;;12.50;99.90;;;;;;5025164;28;20429;-38
2021/10/15 09:25:00;;;;;;;13.23;9.93;;;12.40;99.90;;;;;;5024196;28;20432;-38
2021/10/15 09:27:45;;;;;;;11.77;10.57;;;12.40;99.90;;;;;;5029008;28;20511;-38
2021/10/15 09:30:12;;;;;;;11.30;9.97;;;12.30;99.90;;;;;;5012647;28;20492;-39
2021/10/15 09:32:44;;;;;;;12.20;10.10;;;12.40;99.90;;;;;;5017865;28;20520;-38
2021/10/15 09:35:15;;;;;;;15.60;10.60;;;12.40;99.90;;;;;;5020982;28;20429;-38
2021/10/15 09:37:43;;;;;;;11.53;10.20;;;12.50;99.90;;;;;;5022999;28;20433;-38
2021/10/15 09:40:18;;;;;;;10.87;9.73;;;12.60;99.90;;;;;;5027666;28;20451;-38
2021/10/15 09:42:47;;;;;;;12.60;10.20;;;12.50;99.90;;;;;;5028786;28;20428;-41
2021/10/15 09:45:16;;;;;;;15.67;11.70;;;12.50;99.90;;;;;;5028380;28;20432;-41
2021/10/15 09:48:15;;;;;;;15.00;12.10;;;12.60;99.90;;;;;;5021072;28;20463;-40
2021/10/15 09:50:41;;;;;;;13.33;11.77;;;12.50;99.90;;;;;;5022795;28;20499;-39
2021/10/15 09:53:09;;;;;;;13.50;12.20;;;12.50;99.90;;;;;;5027846;28;20433;-38
2021/10/15 09:55:36;;;;;;;12.80;11.00;;;12.50;99.90;;;;;;5028090;28;20202;-41
2021/10/15 09:58:17;;;;;;;14.63;12.20;;;12.60;99.90;;;;;;5028098;28;20464;-39
2021/10/15 10:00:45;;;;;;;13.90;12.43;;;12.60;99.90;;;;;;5028144;28;20437;-39
2021/10/15 10:03:11;;;;;;;14.87;12.17;;;12.60;99.90;;;;;;5017887;28;20492;-39
2021/10/15 10:05:38;;;;;;;12.30;11.00;;;12.90;99.90;;;;;;5027632;28;20504;-40
2021/10/15 10:08:04;;;;;;;14.33;12.83;;;12.70;99.90;;;;;;5028115;28;20441;-38
2021/10/15 10:10:35;;;;;;;13.70;12.30;;;12.70;99.90;;;;;;5027335;28;20469;-39
2021/10/15 10:13:03;;;;;;;12.67;11.30;;;12.70;99.90;;;;;;5027436;28;20429;-39
2021/10/15 10:15:32;;;;;;;12.70;11.37;;;12.80;99.90;;;;;;5027896;28;20958;-38
2021/10/15 10:20:56;;;;;;;11.00;9.90;;;12.90;99.90;;;;;;5021325;28;20931;-39
2021/10/15 10:23:51;;;;;;;11.40;10.33;;;12.90;99.90;;;;;;5027283;28;20850;-39
2021/10/15 10:26:21;;;;;;;11.00;10.00;;;13.00;99.90;;;;;;5027190;28;20935;-39
2021/10/15 10:29:05;;;;;;;10.30;9.20;;;13.00;99.90;;;;;;5027965;28;20527;-38
2021/10/15 10:31:31;;;;;;;8.93;8.03;;;13.00;99.90;;;;;;5027235;28;20445;-39
2021/10/15 10:34:06;;;;;;;7.97;7.17;;;13.00;99.90;;;;;;5021621;28;20783;-38
2021/10/15 10:36:34;;;;;;;5.23;4.77;;;13.00;99.90;;;;;;5027353;28;20629;-39
2021/10/15 10:39:18;;;;;;;5.90;4.67;;;13.00;99.90;;;;;;5027984;28;20840;-38
2021/10/15 10:42:08;;;;;;;3.63;3.00;;;13.00;99.90;;;;;;5026264;28;20506;-38
2021/10/15 10:44:49;;;;;;;3.20;2.80;;;13.00;99.90;;;;;;5026889;28;21031;-39
2021/10/15 10:47:20;;;;;;;2.77;2.57;;;13.00;99.90;;;;;;5025077;28;20504;-39
2021/10/15 10:52:31;;;;;;;3.30;2.33;;;13.00;99.90;;;;;;5026815;28;20421;-38
2021/10/15 10:54:56;;;;;;;2.20;1.70;;;13.00;99.90;;;;;;5026625;28;20447;-39
2021/10/15 10:57:28;;;;;;;3.30;1.93;;;13.00;99.90;;;;;;5026693;28;21047;-39
2021/10/15 11:00:24;;;;;;;2.27;1.47;;;13.10;99.90;;;;;;5026901;28;20201;-39
2021/10/15 11:02:52;;;;;;;2.40;1.30;;;13.10;99.90;;;;;;5021245;28;20445;-39
2021/10/15 11:05:39;;;;;;;1.53;0.90;;;13.20;99.90;;;;;;5017292;28;20810;-38
2021/10/15 11:08:23;;;;;;;1.10;0.97;;;13.20;99.90;;;;;;5026947;28;20483;-39
2021/10/15 11:10:50;;;;;;;2.53;0.80;;;13.30;99.90;;;;;;5026804;28;20465;-38
2021/10/15 11:13:33;;;;;;;1.93;0.90;;;13.40;99.90;;;;;;5025864;28;20787;-41
2021/10/15 11:15:59;;;;;;;2.60;0.93;;;13.40;99.90;;;;;;5026692;28;20525;-40
2021/10/15 11:18:25;;;;;;;3.90;1.17;;;13.50;99.90;;;;;;5026981;28;20442;-39
2021/10/15 11:20:50;;;;;;;3.70;1.00;;;13.50;99.90;;;;;;5020481;28;20452;-39
2021/10/15 11:23:16;;;;;;;1.13;0.60;;;13.60;99.90;;;;;;5025711;28;20551;-39
2021/10/15 11:25:48;;;;;;;1.83;0.63;;;13.70;99.90;;;;;;5026427;28;20355;-39
2021/10/15 11:28:19;;;;;;;3.27;0.70;;;13.90;99.90;;;;;;5026506;28;20420;-39
2021/10/15 11:30:48;;;;;;;2.60;1.30;;;14.00;99.90;;;;;;5026396;28;20465;-39
2021/10/15 11:33:20;;;;;;;2.30;1.20;;;14.20;99.90;;;;;;5018187;28;20449;-39
2021/10/15 11:35:51;;;;;;;2.27;1.30;;;14.30;99.90;;;;;;5020748;28;20429;-39
2021/10/15 11:38:21;;;;;;;2.43;2.13;;;14.40;99.90;;;;;;5019245;28;20507;-39
2021/10/15 11:40:50;;;;;;;3.97;1.80;;;14.50;99.90;;;;;;5025373;28;20831;-39
2021/10/15 11:43:20;;;;;;;3.50;1.77;;;14.50;99.90;;;;;;5025789;28;20452;-39
2021/10/15 11:45:48;;;;;;;3.17;1.80;;;14.40;99.90;;;;;;5026541;28;20524;-38
2021/10/15 11:48:26;;;;;;;2.10;1.40;;;14.30;99.90;;;;;;5020071;28;20979;-39
2021/10/15 11:50:59;;;;;;;3.40;1.90;;;14.30;99.90;;;;;;5024106;28;20503;-39
2021/10/15 11:53:33;;;;;;;3.63;1.70;;;14.30;99.90;;;;;;5025345;28;20845;-39
2021/10/15 11:56:03;;;;;;;4.03;1.80;;;14.30;99.90;;;;;;5029388;28;20453;-39
2021/10/15 11:58:33;;;;;;;2.40;1.40;;;14.40;99.90;;;;;;5038791;28;20499;-38
2021/10/15 12:01:11;;;;;;;3.67;2.00;;;14.40;99.90;;;;;;5038501;28;20430;-39
2021/10/15 12:03:43;;;;;;;3.47;2.63;;;14.70;99.90;;;;;;5015245;28;20417;-39
2021/10/15 12:06:10;;;;;;;3.90;2.43;;;14.90;99.90;;;;;;5025833;28;20834;-39
2021/10/15 12:08:36;;;;;;;2.60;2.00;;;15.00;99.90;;;;;;5025682;28;20428;-39
2021/10/15 12:11:03;;;;;;;3.23;1.60;;;15.00;99.90;;;;;;5025819;28;20468;-44
2021/10/15 12:13:29;;;;;;;4.97;1.93;;;14.80;99.90;;;;;;5024779;28;20425;-39
2021/10/15 12:15:55;;;;;;;2.50;1.57;;;14.70;99.90;;;;;;5025730;28;20872;-39
2021/10/15 12:18:28;;;;;;;2.30;1.50;;;14.80;99.90;;;;;;5022972;28;20470;-39
2021/10/15 12:21:11;;;;;;;1.23;1.10;;;14.90;99.90;;;;;;5017106;28;20242;-39
2021/10/15 12:23:53;;;;;;;5.43;1.90;;;15.10;99.90;;;;;;5024923;28;20431;-40
2021/10/15 12:26:20;;;;;;;3.40;2.00;;;15.30;99.90;;;;;;5025462;28;20421;-39
2021/10/15 12:28:46;;;;;;;2.63;1.80;;;15.50;99.90;;;;;;5025365;28;20498;-40
2021/10/15 12:31:31;;;;;;;3.33;1.50;;;15.70;99.90;;;;;;5025410;28;20487;-41
2021/10/15 12:34:04;;;;;;;3.67;1.73;;;15.80;99.90;;;;;;5017227;28;20538;-40
2021/10/15 12:36:31;;;;;;;5.30;2.10;;;16.00;99.90;;;;;;5024630;28;20413;-39
2021/10/15 12:39:16;;;;;;;5.23;2.10;;;16.10;99.90;;;;;;5025914;28;20499;-39
2021/10/15 12:41:42;;;;;;;5.63;1.40;;;16.20;99.90;;;;;;5013435;28;20488;-39
2021/10/15 12:44:37;;;;;;;2.87;1.50;;;16.00;99.90;;;;;;5026264;28;20504;-39
2021/10/15 12:47:08;;;;;;;4.33;1.30;;;15.80;99.90;;;;;;5024507;28;20827;-40
2021/10/15 12:50:00;;;;;;;3.30;1.10;;;15.70;99.90;;;;;;5018654;28;20480;-40
2021/10/15 12:52:37;;;;;;;4.13;1.70;;;15.40;99.90;;;;;;5023840;28;20552;-39
2021/10/15 12:55:27;;;;;;;2.63;1.30;;;15.40;99.90;;;;;;5024368;28;20415;-39
2021/10/15 12:58:04;;;;;;;3.80;1.40;;;15.40;99.90;;;;;;5018898;28;20713;-39
2021/10/15 13:00:31;;;;;;;1.83;1.30;;;15.40;99.90;;;;;;5025876;28;20413;-39
2021/10/15 13:03:07;;;;;;;5.83;1.40;;;15.60;99.90;;;;;;5024406;28;21009;-39
2021/10/15 13:05:34;;;;;;;4.20;1.73;;;15.90;99.90;;;;;;5016297;28;20455;-40
2021/10/15 13:08:00;;;;;;;5.07;1.67;;;16.00;99.90;;;;;;5025252;28;20428;-40
2021/10/15 13:10:27;;;;;;;1.80;1.20;;;16.20;99.90;;;;;;5021288;28;20535;-39